DNAA METAR and TAF | Updated Today

DNAA METAR

Nnamdi Azikiwe International Airport

Observation time: 2:01 hr. ago

DNAA 051800Z 34004KT CAVOK 34/12 Q1010 NOSIG

Need help? Read our tutorial on how to read METARs or read the parsed version below.

Nnamdi Azikiwe International Airport (DNAA) METAR

  • Weather conditions on Sun, 05 Feb 2023 18:00:00 +0000 (2:01 hr. ago):
  • Present conditions: Dry
  • Clouds: Clear skies
  • Visibility: Greater than 10 km
  • Wind: 340 degrees at 4 knots
  • Temperature: 34 celsius
  • Dew point: 12 celsius
  • Pressure: 1010 millibars
  • Remarks: None


Useful to know...

DNAA TAF

Nnamdi Azikiwe International Airport

TAF DNAA 051700Z 0518/0624 VRB02KT CAVOK TEMPO 0605/0608 07010KT
Observation time: 3:01 hr. ago
Need help? Read our tutorial on how to read TAFs or read the parsed version below.

Parsed version of TAF for Nnamdi Azikiwe International Airport (DNAA)

  • From 05 February at 18:00 UTC, to day 06 of the month at 24:00 UTC
  • Visibility: Greater than 10 km
  • Wind: Variable at 2
  • Expected to arise temporarily, from 06 February at 05:00 UTC, to day 06 of the month at 08:00 UTC
  • Wind: 70 degrees at 10

Airports near DNAA

No airports found within 100nm radius.